Time;durP1;ratioP1;P1;durP2;ratioP2;P2;SDS_P1;SDS_P2;PMS_P1;PMS_P2;Temp;Humidity;BMP_temperature;BMP_pressure;BME280_temperature;BME280_humidity;BME280_pressure;Samples;Min_cycle;Max_cycle;Signal;HPM_P1;HPM_P2
2022/05/10 00:00:15;;;;;;;6.43;4.43;;;13.20;99.90;;;;;;5103333;28;20495;-54
2022/05/10 00:02:42;;;;;;;9.17;4.73;;;13.20;99.90;;;;;;5099325;28;20181;-53
2022/05/10 00:05:08;;;;;;;8.00;3.90;;;13.10;99.90;;;;;;5099580;28;20423;-54
2022/05/10 00:07:36;;;;;;;7.93;4.30;;;13.10;99.90;;;;;;5103508;28;20419;-53
2022/05/10 00:10:08;;;;;;;10.23;4.90;;;13.10;99.90;;;;;;5099707;27;20465;-54
2022/05/10 00:12:34;;;;;;;6.57;3.80;;;13.10;99.90;;;;;;5098407;28;20424;-55
2022/05/10 00:15:00;;;;;;;8.00;4.33;;;13.10;99.90;;;;;;5099600;28;20499;-54
2022/05/10 00:17:32;;;;;;;8.07;3.73;;;13.10;99.90;;;;;;5100899;28;20199;-54
2022/05/10 00:19:58;;;;;;;8.37;3.90;;;13.10;99.90;;;;;;5103461;27;20707;-54
2022/05/10 00:22:23;;;;;;;9.70;4.33;;;13.10;99.90;;;;;;5097090;28;20415;-54
2022/05/10 00:24:50;;;;;;;10.03;4.60;;;13.00;99.90;;;;;;5103368;27;20203;-54
2022/05/10 00:27:16;;;;;;;7.07;4.07;;;13.00;99.90;;;;;;5105658;28;20191;-54
2022/05/10 00:29:41;;;;;;;6.80;4.20;;;13.00;99.90;;;;;;5101576;27;20508;-54
2022/05/10 00:32:07;;;;;;;6.60;4.30;;;12.90;99.90;;;;;;5104999;28;20418;-54
2022/05/10 00:34:34;;;;;;;6.00;3.90;;;12.90;99.90;;;;;;5097809;28;20189;-55
2022/05/10 00:37:01;;;;;;;10.00;4.20;;;12.80;99.90;;;;;;5098160;28;20272;-54
2022/05/10 00:39:27;;;;;;;11.07;4.83;;;12.80;99.90;;;;;;5097578;28;20431;-54
2022/05/10 00:42:16;;;;;;;7.17;3.80;;;12.80;99.90;;;;;;5088942;28;20744;-54
2022/05/10 00:44:53;;;;;;;8.97;4.20;;;12.80;99.90;;;;;;5105700;28;20276;-54
2022/05/10 00:47:30;;;;;;;9.17;4.60;;;12.70;99.90;;;;;;5098235;28;20407;-55
2022/05/10 00:50:04;;;;;;;5.90;4.00;;;12.70;99.90;;;;;;5099720;27;20470;-54
2022/05/10 00:52:47;;;;;;;9.83;4.47;;;12.60;99.90;;;;;;5106400;28;20786;-54
2022/05/10 00:55:28;;;;;;;6.27;4.00;;;12.70;99.90;;;;;;5098920;28;20426;-54
2022/05/10 00:58:19;;;;;;;12.03;4.20;;;12.60;99.90;;;;;;5096294;28;20456;-54
2022/05/10 01:00:45;;;;;;;8.90;4.20;;;12.60;99.90;;;;;;5095379;28;20442;-54
2022/05/10 01:03:22;;;;;;;11.10;4.70;;;12.50;99.90;;;;;;5103910;28;20422;-53
2022/05/10 01:06:11;;;;;;;5.13;3.93;;;12.50;99.90;;;;;;5097411;28;20437;-54
2022/05/10 01:08:55;;;;;;;9.27;4.57;;;12.50;99.90;;;;;;5101300;28;20525;-54
2022/05/10 01:11:28;;;;;;;9.70;4.03;;;12.40;99.90;;;;;;5099491;28;20482;-53
2022/05/10 01:13:59;;;;;;;10.10;4.13;;;12.40;99.90;;;;;;5098727;28;20510;-54
2022/05/10 01:16:25;;;;;;;12.00;4.50;;;12.30;99.90;;;;;;5103732;28;20419;-54
2022/05/10 01:18:53;;;;;;;8.30;4.30;;;12.30;99.90;;;;;;5086542;28;20462;-53
2022/05/10 01:21:18;;;;;;;9.87;4.97;;;12.20;99.90;;;;;;5104915;27;20453;-54
2022/05/10 01:23:56;;;;;;;9.27;4.50;;;12.20;99.90;;;;;;5099803;28;20435;-54
2022/05/10 01:26:41;;;;;;;6.03;4.13;;;12.10;99.90;;;;;;5093407;28;20189;-54
2022/05/10 01:29:12;;;;;;;7.40;4.40;;;12.10;99.90;;;;;;5106647;28;20438;-54
2022/05/10 01:31:45;;;;;;;9.23;4.23;;;12.10;99.90;;;;;;5101056;28;20967;-54
2022/05/10 01:34:17;;;;;;;8.83;4.30;;;12.10;99.90;;;;;;5104133;28;20923;-54
2022/05/10 01:36:55;;;;;;;8.60;4.33;;;12.10;99.90;;;;;;5100887;28;20963;-54
2022/05/10 01:39:27;;;;;;;14.83;5.00;;;12.10;99.90;;;;;;5102027;28;20441;-53
2022/05/10 01:42:15;;;;;;;9.73;4.43;;;12.00;99.90;;;;;;5098945;28;20422;-54
2022/05/10 01:44:54;;;;;;;7.27;4.23;;;12.10;99.90;;;;;;5099170;28;20423;-54
2022/05/10 01:47:30;;;;;;;11.70;5.23;;;12.10;99.90;;;;;;5096418;28;20438;-54
2022/05/10 01:50:02;;;;;;;7.17;4.43;;;12.10;99.90;;;;;;5107640;28;20458;-54
2022/05/10 01:52:50;;;;;;;8.57;4.37;;;12.10;99.90;;;;;;5099745;28;20447;-54
2022/05/10 01:55:24;;;;;;;15.30;5.30;;;12.20;99.90;;;;;;5101945;28;20905;-54
2022/05/10 01:57:51;;;;;;;8.90;4.30;;;12.10;99.90;;;;;;5094298;28;20912;-54
2022/05/10 02:00:26;;;;;;;8.40;4.90;;;12.10;99.90;;;;;;5101338;28;20518;-54
2022/05/10 02:02:57;;;;;;;13.03;4.93;;;12.20;99.90;;;;;;5101342;28;20434;-54
2022/05/10 02:05:36;;;;;;;6.50;3.80;;;12.10;99.90;;;;;;5103003;28;20422;-54
2022/05/10 02:08:13;;;;;;;10.10;4.27;;;12.10;99.90;;;;;;5107301;28;20413;-54
2022/05/10 02:10:43;;;;;;;9.20;5.17;;;12.10;99.90;;;;;;5109315;28;20988;-54
2022/05/10 02:13:17;;;;;;;8.23;4.40;;;12.10;99.90;;;;;;5103025;27;21994;-54
2022/05/10 02:15:43;;;;;;;9.47;4.50;;;12.10;99.90;;;;;;5100045;27;20518;-54
2022/05/10 02:18:19;;;;;;;9.07;4.80;;;12.10;99.90;;;;;;5100961;28;20522;-54
2022/05/10 02:20:55;;;;;;;10.17;5.00;;;12.00;99.90;;;;;;5108706;27;20266;-58
2022/05/10 02:23:42;;;;;;;9.60;4.80;;;12.00;99.90;;;;;;5108172;28;20426;-54
2022/05/10 02:26:11;;;;;;;8.10;5.03;;;12.00;99.90;;;;;;5097611;28;20586;-54
2022/05/10 02:29:07;;;;;;;8.90;4.93;;;12.00;99.90;;;;;;5107861;28;20444;-54
2022/05/10 02:34:34;;;;;;;6.63;4.23;;;12.00;99.90;;;;;;5108986;28;20429;-54
2022/05/10 02:36:59;;;;;;;15.10;4.60;;;12.00;99.90;;;;;;5108660;28;20477;-54
2022/05/10 02:39:25;;;;;;;11.70;5.10;;;12.00;99.90;;;;;;5104808;28;20445;-54
2022/05/10 02:41:52;;;;;;;6.50;4.30;;;12.00;99.90;;;;;;5108752;28;20255;-54
2022/05/10 02:44:18;;;;;;;14.13;5.13;;;12.00;99.90;;;;;;5099667;28;20686;-54
2022/05/10 02:46:43;;;;;;;9.07;4.80;;;12.00;99.90;;;;;;5104587;28;20422;-54
2022/05/10 02:49:09;;;;;;;11.73;4.80;;;12.00;99.90;;;;;;5100144;28;20211;-53
2022/05/10 02:51:34;;;;;;;7.93;4.63;;;12.00;99.90;;;;;;5102909;28;20278;-54
2022/05/10 02:54:00;;;;;;;15.50;5.27;;;12.00;99.90;;;;;;5103239;28;20188;-54
2022/05/10 02:56:27;;;;;;;13.10;5.60;;;12.10;99.90;;;;;;5098117;27;20193;-54
2022/05/10 02:59:02;;;;;;;8.20;5.00;;;12.10;99.90;;;;;;5102264;27;20200;-54
2022/05/10 03:01:34;;;;;;;10.33;5.00;;;12.10;99.90;;;;;;5109902;28;20506;-54
2022/05/10 03:04:01;;;;;;;6.57;3.93;;;12.10;99.90;;;;;;5101762;27;20768;-54
2022/05/10 03:06:28;;;;;;;13.50;4.77;;;12.10;99.90;;;;;;5096858;28;20495;-54
2022/05/10 03:08:55;;;;;;;13.90;5.10;;;12.10;99.90;;;;;;5102007;27;20458;-54
2022/05/10 03:11:20;;;;;;;7.60;5.00;;;12.20;99.90;;;;;;5108120;27;20453;-54
2022/05/10 03:13:47;;;;;;;8.83;5.47;;;12.10;99.90;;;;;;5107906;28;20828;-54
2022/05/10 03:16:16;;;;;;;7.33;4.37;;;12.20;99.90;;;;;;5099223;28;20607;-53
2022/05/10 03:18:42;;;;;;;5.67;4.33;;;12.20;99.90;;;;;;5106847;27;20477;-54
2022/05/10 03:21:07;;;;;;;7.77;5.00;;;12.20;99.90;;;;;;5105673;28;20506;-54
2022/05/10 03:23:33;;;;;;;9.00;5.20;;;12.30;99.90;;;;;;5104735;28;20858;-54
2022/05/10 03:25:59;;;;;;;7.37;4.30;;;12.30;99.90;;;;;;5102321;28;20200;-54
2022/05/10 03:28:24;;;;;;;9.80;4.87;;;12.30;99.90;;;;;;5105389;27;20203;-54
2022/05/10 03:30:50;;;;;;;8.17;4.70;;;12.30;99.90;;;;;;5105241;28;20402;-54
2022/05/10 03:33:17;;;;;;;7.87;4.97;;;12.30;99.90;;;;;;5105600;27;20199;-54
2022/05/10 03:35:42;;;;;;;8.50;5.17;;;12.30;99.90;;;;;;5103319;27;20479;-54
2022/05/10 03:38:08;;;;;;;7.53;4.43;;;12.20;99.90;;;;;;5100236;28;20438;-54
2022/05/10 03:40:34;;;;;;;15.73;5.77;;;12.20;99.90;;;;;;5104601;28;20240;-54
2022/05/10 03:43:01;;;;;;;7.57;4.57;;;12.20;99.90;;;;;;5105918;27;21261;-54
2022/05/10 03:45:27;;;;;;;12.00;5.90;;;12.20;99.90;;;;;;5106995;28;20767;-54
2022/05/10 03:47:55;;;;;;;9.30;5.30;;;12.20;99.90;;;;;;5104657;28;20472;-54
2022/05/10 03:50:23;;;;;;;10.33;5.60;;;12.20;99.90;;;;;;5105411;27;20474;-54
2022/05/10 03:52:49;;;;;;;8.27;5.00;;;12.30;99.90;;;;;;5105073;27;20450;-54
2022/05/10 03:55:19;;;;;;;10.63;5.10;;;12.30;99.90;;;;;;5107698;28;20917;-55
2022/05/10 03:57:45;;;;;;;14.53;6.17;;;12.30;99.90;;;;;;5097906;28;20500;-54
2022/05/10 04:00:14;;;;;;;8.57;4.67;;;12.40;99.90;;;;;;5106939;27;20445;-54
2022/05/10 04:02:40;;;;;;;10.47;5.07;;;12.40;99.90;;;;;;5097447;28;20437;-54
2022/05/10 04:05:07;;;;;;;6.57;4.83;;;12.50;99.90;;;;;;5101903;28;20915;-54
2022/05/10 04:07:33;;;;;;;10.13;5.23;;;12.50;99.90;;;;;;5106451;27;20204;-54
2022/05/10 04:09:59;;;;;;;8.30;4.83;;;12.50;99.90;;;;;;5105397;27;20462;-54
2022/05/10 04:12:25;;;;;;;12.73;5.30;;;12.50;99.90;;;;;;5099215;28;20453;-54
2022/05/10 04:14:50;;;;;;;8.83;4.90;;;12.50;99.90;;;;;;5105189;28;20457;-54
2022/05/10 04:17:16;;;;;;;9.17;5.13;;;12.50;99.90;;;;;;5102643;27;20197;-52
2022/05/10 04:19:41;;;;;;;10.37;4.70;;;12.60;99.90;;;;;;5099356;27;20838;-54
2022/05/10 04:22:07;;;;;;;7.93;4.90;;;12.60;99.90;;;;;;5102256;27;20192;-54
2022/05/10 04:24:33;;;;;;;11.80;4.83;;;12.70;99.90;;;;;;5084290;28;20304;-54
2022/05/10 04:27:00;;;;;;;10.07;5.43;;;12.70;99.90;;;;;;5103055;28;20191;-54
2022/05/10 04:29:26;;;;;;;9.17;5.40;;;12.90;99.90;;;;;;5098494;28;20445;-54
2022/05/10 04:31:51;;;;;;;8.43;4.93;;;12.90;99.90;;;;;;5100162;27;20465;-54
2022/05/10 04:34:17;;;;;;;9.23;5.47;;;13.00;99.90;;;;;;5094818;28;20212;-54
2022/05/10 04:36:44;;;;;;;9.83;5.70;;;13.10;99.90;;;;;;5102313;27;20630;-54
2022/05/10 04:39:09;;;;;;;9.83;5.50;;;13.20;99.90;;;;;;5086196;28;20197;-54
2022/05/10 04:41:37;;;;;;;9.73;5.50;;;13.30;99.90;;;;;;5103868;28;20879;-54
2022/05/10 04:44:06;;;;;;;10.20;5.40;;;13.40;99.90;;;;;;5097141;27;20192;-54
2022/05/10 04:46:35;;;;;;;12.33;5.60;;;13.50;99.90;;;;;;5099789;27;20453;-55
2022/05/10 04:49:01;;;;;;;9.87;4.87;;;13.60;99.90;;;;;;5102254;28;20434;-54
2022/05/10 04:51:28;;;;;;;8.37;5.50;;;13.70;99.90;;;;;;5099824;28;20942;-53
2022/05/10 04:53:54;;;;;;;11.57;5.80;;;13.70;99.90;;;;;;5102215;28;20431;-54
2022/05/10 04:56:20;;;;;;;6.33;4.83;;;13.80;99.90;;;;;;5103831;27;20445;-54
2022/05/10 04:58:45;;;;;;;8.80;5.80;;;13.80;99.90;;;;;;5102309;28;20469;-52
2022/05/10 05:01:13;;;;;;;18.87;6.50;;;13.80;99.90;;;;;;5107280;27;20196;-55
2022/05/10 05:03:43;;;;;;;6.97;5.53;;;13.90;99.90;;;;;;5103206;28;20919;-54
2022/05/10 05:06:09;;;;;;;11.40;5.57;;;13.90;99.90;;;;;;5097530;28;20479;-54
2022/05/10 05:08:34;;;;;;;11.20;5.60;;;14.00;99.90;;;;;;5103441;28;20979;-54
2022/05/10 05:11:00;;;;;;;13.87;6.37;;;14.10;99.90;;;;;;5103106;27;20244;-53
2022/05/10 05:13:26;;;;;;;9.50;6.00;;;14.10;99.90;;;;;;5100134;28;20180;-54
2022/05/10 05:15:52;;;;;;;10.00;5.57;;;14.30;99.90;;;;;;5098350;28;20442;-54
2022/05/10 05:18:18;;;;;;;7.43;5.63;;;14.40;99.90;;;;;;5100318;28;20188;-54
2022/05/10 05:20:44;;;;;;;12.80;6.17;;;14.40;99.90;;;;;;5099020;28;20477;-54
2022/05/10 05:23:11;;;;;;;13.83;6.60;;;14.50;99.90;;;;;;5099249;28;20705;-54
2022/05/10 05:25:38;;;;;;;12.50;5.80;;;14.50;99.90;;;;;;5096523;28;20443;-54
2022/05/10 05:28:05;;;;;;;13.90;7.00;;;14.60;99.90;;;;;;5099366;28;20435;-54
2022/05/10 05:30:31;;;;;;;14.73;6.03;;;14.60;99.90;;;;;;5094046;28;20508;-54
2022/05/10 05:32:57;;;;;;;8.17;5.83;;;14.60;99.90;;;;;;5103052;28;20510;-53
2022/05/10 05:35:23;;;;;;;8.53;5.90;;;14.70;99.90;;;;;;5098076;28;20439;-54
2022/05/10 05:37:48;;;;;;;11.40;6.13;;;14.70;99.90;;;;;;5101710;28;20199;-54
2022/05/10 05:40:16;;;;;;;9.33;6.13;;;14.80;99.90;;;;;;5098344;27;20211;-54
2022/05/10 05:42:42;;;;;;;8.97;5.77;;;14.90;99.90;;;;;;5097736;28;20196;-53
2022/05/10 05:45:10;;;;;;;17.83;7.00;;;15.10;99.90;;;;;;5093789;28;20926;-54
2022/05/10 05:47:36;;;;;;;11.23;6.30;;;15.20;99.90;;;;;;5100153;28;20525;-53
2022/05/10 05:50:02;;;;;;;17.73;6.90;;;15.40;99.90;;;;;;5099938;28;20540;-54
2022/05/10 05:52:28;;;;;;;16.27;6.30;;;15.50;99.90;;;;;;5103435;28;20826;-54
2022/05/10 05:54:54;;;;;;;8.80;6.37;;;15.60;99.90;;;;;;5101790;28;20434;-53
2022/05/10 05:57:21;;;;;;;11.77;6.23;;;15.70;99.90;;;;;;5101999;28;20283;-54
2022/05/10 05:59:47;;;;;;;11.87;6.50;;;15.70;99.90;;;;;;5104888;28;21177;-54
2022/05/10 06:02:18;;;;;;;9.03;5.63;;;15.80;99.90;;;;;;5099180;28;20438;-54
2022/05/10 06:04:44;;;;;;;13.00;6.63;;;15.90;99.90;;;;;;5104337;28;20466;-52
2022/05/10 06:07:10;;;;;;;14.10;6.57;;;16.10;99.90;;;;;;5103373;28;20462;-53
2022/05/10 06:09:39;;;;;;;18.60;6.50;;;16.20;99.90;;;;;;5092399;28;20983;-54
2022/05/10 06:12:06;;;;;;;11.37;6.90;;;16.40;99.90;;;;;;5095771;28;20188;-54
2022/05/10 06:14:33;;;;;;;10.93;6.83;;;16.60;99.90;;;;;;5095800;28;20427;-54
2022/05/10 06:16:58;;;;;;;14.70;7.07;;;16.90;99.90;;;;;;5099014;28;20511;-53
2022/05/10 06:19:25;;;;;;;16.63;6.50;;;17.20;99.90;;;;;;5101315;28;20827;-53
2022/05/10 06:21:51;;;;;;;10.13;7.00;;;17.30;99.90;;;;;;5103016;28;20196;-54
2022/05/10 06:24:17;;;;;;;14.53;7.37;;;17.40;99.90;;;;;;5104574;28;21373;-54
2022/05/10 06:26:42;;;;;;;19.77;7.00;;;17.60;99.90;;;;;;5106623;28;20430;-57
2022/05/10 06:29:08;;;;;;;10.50;6.40;;;17.70;99.90;;;;;;5095476;28;20223;-54
2022/05/10 06:31:36;;;;;;;13.37;6.07;;;17.80;99.90;;;;;;5102454;28;20784;-51
2022/05/10 06:34:02;;;;;;;18.00;6.13;;;18.00;99.90;;;;;;5102896;28;20299;-52
2022/05/10 06:36:27;;;;;;;12.60;6.47;;;18.20;99.90;;;;;;5099222;28;20434;-52
2022/05/10 06:38:53;;;;;;;13.50;7.47;;;18.40;99.90;;;;;;5097528;28;20421;-52
2022/05/10 06:41:18;;;;;;;9.60;6.87;;;18.50;99.90;;;;;;5085728;28;20197;-51
2022/05/10 06:43:44;;;;;;;10.73;6.60;;;18.50;99.90;;;;;;5099574;28;20208;-54
2022/05/10 06:46:15;;;;;;;15.70;6.13;;;18.50;99.90;;;;;;5099954;28;20566;-54
2022/05/10 06:48:45;;;;;;;16.27;6.77;;;18.70;99.90;;;;;;5097017;28;20509;-54
2022/05/10 06:51:12;;;;;;;13.97;7.43;;;18.80;99.90;;;;;;5100264;28;20461;-54
2022/05/10 06:53:39;;;;;;;16.48;6.53;;;18.80;99.90;;;;;;5101952;28;20449;-54
2022/05/10 06:56:05;;;;;;;14.00;7.40;;;18.90;99.90;;;;;;5098687;28;20642;-53
2022/05/10 06:58:31;;;;;;;18.43;8.80;;;18.80;99.90;;;;;;5091309;28;20537;-54
2022/05/10 07:00:57;;;;;;;15.53;7.10;;;18.70;99.90;;;;;;5107558;28;20533;-51
2022/05/10 07:03:28;;;;;;;11.37;6.93;;;18.60;99.90;;;;;;5107455;28;20433;-51
2022/05/10 07:05:54;;;;;;;15.33;8.70;;;18.60;99.90;;;;;;5098608;27;20196;-51
2022/05/10 07:08:20;;;;;;;20.03;7.77;;;18.80;99.90;;;;;;5105358;28;20441;-51
2022/05/10 07:10:46;;;;;;;14.23;7.13;;;19.00;99.90;;;;;;5098611;28;20454;-51
2022/05/10 07:13:19;;;;;;;13.33;7.03;;;19.30;99.90;;;;;;5110789;28;20195;-52
2022/05/10 07:15:45;;;;;;;9.60;7.10;;;19.70;99.90;;;;;;5104443;27;20273;-51
2022/05/10 07:18:12;;;;;;;10.53;7.03;;;20.20;99.90;;;;;;5100100;28;21249;-51
2022/05/10 07:20:38;;;;;;;10.87;6.80;;;20.70;99.90;;;;;;5090449;28;20285;-51
2022/05/10 07:23:04;;;;;;;19.30;6.97;;;21.20;99.90;;;;;;5105625;28;20475;-52
2022/05/10 07:25:30;;;;;;;15.00;6.90;;;21.60;99.90;;;;;;5107204;28;20441;-52
2022/05/10 07:27:56;;;;;;;20.37;7.10;;;21.90;99.90;;;;;;5086996;28;20435;-51
2022/05/10 07:30:24;;;;;;;14.20;6.93;;;21.80;99.90;;;;;;5096922;27;20217;-51
2022/05/10 07:32:50;;;;;;;10.57;6.47;;;21.70;99.90;;;;;;5104839;28;20446;-51
2022/05/10 07:38:06;;;;;;;21.40;6.90;;;21.70;99.90;;;;;;5107384;28;20436;-51
2022/05/10 07:40:32;;;;;;;17.60;6.70;;;21.50;99.90;;;;;;5105872;27;20434;-49
2022/05/10 07:42:57;;;;;;;13.63;6.60;;;21.50;99.90;;;;;;5104668;27;20466;-52
2022/05/10 07:45:23;;;;;;;36.83;7.83;;;21.40;99.90;;;;;;5104955;27;20200;-50
2022/05/10 07:47:48;;;;;;;9.50;6.30;;;21.30;99.90;;;;;;5104285;27;20196;-49
2022/05/10 07:50:14;;;;;;;13.73;6.27;;;21.50;99.90;;;;;;5101498;27;20270;-50
2022/05/10 07:52:40;;;;;;;14.03;6.03;;;21.60;99.90;;;;;;5105007;28;20597;-50
2022/05/10 07:55:07;;;;;;;8.60;6.00;;;21.90;99.90;;;;;;5100422;28;20683;-50
2022/05/10 07:57:32;;;;;;;11.30;6.10;;;21.90;99.90;;;;;;5103513;28;20454;-50
2022/05/10 07:59:58;;;;;;;13.20;7.17;;;21.80;99.90;;;;;;5101528;27;20472;-50
2022/05/10 08:02:24;;;;;;;8.53;6.57;;;21.70;99.90;;;;;;5107427;27;20250;-50
2022/05/10 08:04:49;;;;;;;10.93;6.70;;;21.60;99.90;;;;;;5088304;28;20546;-50
2022/05/10 08:07:15;;;;;;;13.40;6.10;;;21.60;99.90;;;;;;5105153;28;20193;-50
2022/05/10 08:09:40;;;;;;;13.70;6.77;;;21.70;99.90;;;;;;5093702;28;20641;-50
2022/05/10 08:12:06;;;;;;;8.70;6.20;;;21.80;99.90;;;;;;5104644;28;20293;-50
2022/05/10 08:14:32;;;;;;;13.20;6.70;;;21.80;99.90;;;;;;5095757;28;20197;-50
2022/05/10 08:16:57;;;;;;;8.40;6.40;;;21.90;99.90;;;;;;5103677;28;20541;-50
2022/05/10 08:19:23;;;;;;;10.87;6.30;;;22.00;99.90;;;;;;5099989;28;20681;-50
2022/05/10 08:21:48;;;;;;;15.07;7.27;;;22.00;99.90;;;;;;5103615;28;20609;-50
2022/05/10 08:24:14;;;;;;;20.90;7.00;;;22.00;99.90;;;;;;5104759;28;20236;-50
2022/05/10 08:26:39;;;;;;;12.13;6.60;;;22.00;99.90;;;;;;5104512;28;20641;-50
2022/05/10 08:29:05;;;;;;;14.23;7.30;;;22.10;99.90;;;;;;5103709;28;20278;-50
2022/05/10 08:31:30;;;;;;;13.63;6.73;;;22.30;99.90;;;;;;5103087;28;20686;-50
2022/05/10 08:33:56;;;;;;;19.53;6.90;;;22.50;99.90;;;;;;5106400;28;20860;-50
2022/05/10 08:36:22;;;;;;;8.87;6.63;;;22.70;99.90;;;;;;5087352;28;20669;-50
2022/05/10 08:38:48;;;;;;;9.90;7.17;;;22.80;99.90;;;;;;5098734;28;20193;-51
2022/05/10 08:41:25;;;;;;;8.60;6.87;;;22.80;99.90;;;;;;5098149;28;20446;-51
2022/05/10 08:44:00;;;;;;;11.80;6.33;;;22.70;99.90;;;;;;5106303;28;20184;-50
2022/05/10 08:46:32;;;;;;;14.60;7.70;;;22.50;99.90;;;;;;5101769;28;20792;-51
2022/05/10 08:49:03;;;;;;;11.13;7.00;;;22.40;99.90;;;;;;5105598;28;20471;-51
2022/05/10 08:51:29;;;;;;;15.37;7.90;;;22.20;99.90;;;;;;5102067;28;20473;-50
2022/05/10 08:53:55;;;;;;;14.87;7.17;;;22.10;99.90;;;;;;5106532;28;20414;-50
2022/05/10 08:56:26;;;;;;;14.43;6.47;;;22.10;99.90;;;;;;5100812;28;20433;-51
2022/05/10 08:59:03;;;;;;;12.60;6.70;;;22.30;99.90;;;;;;5098139;28;20177;-51
2022/05/10 09:01:36;;;;;;;9.30;6.50;;;22.80;99.90;;;;;;5102662;28;20423;-51
2022/05/10 09:04:13;;;;;;;10.03;6.80;;;23.20;99.90;;;;;;5098534;28;20426;-50
2022/05/10 09:06:44;;;;;;;10.50;6.60;;;23.60;99.90;;;;;;5101960;28;20461;-50
2022/05/10 09:09:32;;;;;;;10.83;6.90;;;23.90;99.90;;;;;;5107841;28;20434;-52
2022/05/10 09:12:10;;;;;;;9.40;6.63;;;24.30;99.90;;;;;;5103549;28;20462;-50
2022/05/10 09:14:43;;;;;;;9.03;6.47;;;24.90;99.90;;;;;;5106488;28;20422;-51
2022/05/10 09:17:10;;;;;;;11.20;6.70;;;25.70;99.90;;;;;;5095887;28;20431;-51
2022/05/10 09:19:40;;;;;;;9.53;6.70;;;26.20;99.90;;;;;;5097949;28;20847;-51
2022/05/10 09:22:22;;;;;;;7.33;5.80;;;26.50;99.90;;;;;;5096847;28;20423;-51
2022/05/10 09:24:56;;;;;;;10.97;6.40;;;26.40;99.90;;;;;;5099911;28;20748;-51
2022/05/10 09:27:28;;;;;;;9.33;6.17;;;26.60;99.90;;;;;;5097570;28;20407;-51
2022/05/10 09:29:53;;;;;;;9.60;5.97;;;26.30;99.90;;;;;;5099903;28;20428;-51
2022/05/10 09:35:19;;;;;;;7.07;5.13;;;25.60;99.90;;;;;;5101444;28;20204;-51
2022/05/10 09:37:56;;;;;;;11.43;5.80;;;25.70;99.90;;;;;;5097564;28;20497;-51
2022/05/10 09:40:27;;;;;;;9.00;5.33;;;26.00;99.90;;;;;;5096929;28;20504;-50
2022/05/10 09:43:19;;;;;;;10.00;5.30;;;26.50;99.90;;;;;;5102839;28;20419;-51
2022/05/10 09:46:02;;;;;;;7.00;4.57;;;27.00;99.90;;;;;;5090259;28;20443;-50
2022/05/10 09:48:28;;;;;;;6.60;5.53;;;27.30;99.90;;;;;;5100323;28;20783;-51
2022/05/10 09:50:53;;;;;;;8.40;5.10;;;27.50;99.90;;;;;;5079562;28;20470;-50
2022/05/10 09:53:21;;;;;;;6.10;5.50;;;27.30;99.90;;;;;;5099912;28;20249;-51
2022/05/10 09:56:03;;;;;;;11.03;4.90;;;27.10;99.90;;;;;;5102308;28;20199;-50
2022/05/10 09:58:36;;;;;;;7.00;4.90;;;26.50;99.90;;;;;;5101223;28;20753;-51
2022/05/10 10:01:05;;;;;;;6.97;4.90;;;26.30;99.90;;;;;;5095648;28;20423;-51
2022/05/10 10:03:34;;;;;;;5.70;4.07;;;26.30;99.90;;;;;;5100592;28;20423;-51
2022/05/10 10:06:18;;;;;;;9.63;5.10;;;26.80;99.90;;;;;;5096126;28;20776;-51
2022/05/10 10:08:47;;;;;;;4.30;3.60;;;27.30;99.90;;;;;;5096318;28;20441;-51
2022/05/10 10:11:32;;;;;;;9.07;4.53;;;27.90;99.90;;;;;;5102176;28;20486;-51
2022/05/10 10:14:06;;;;;;;10.03;4.90;;;27.70;99.90;;;;;;5097072;28;20448;-51
2022/05/10 10:16:35;;;;;;;7.50;4.43;;;26.90;99.90;;;;;;5099664;28;20483;-50
2022/05/10 10:19:04;;;;;;;6.97;4.70;;;26.60;99.90;;;;;;5097064;28;20765;-51
2022/05/10 10:21:41;;;;;;;12.30;4.40;;;26.60;99.90;;;;;;5099995;28;20444;-50
2022/05/10 10:24:07;;;;;;;11.33;4.33;;;26.80;99.90;;;;;;5097254;28;20814;-51
2022/05/10 10:26:38;;;;;;;6.50;4.67;;;27.00;99.90;;;;;;5099559;28;20415;-51
2022/05/10 10:29:30;;;;;;;9.60;4.23;;;27.10;99.90;;;;;;5098202;28;20507;-50
2022/05/10 10:32:06;;;;;;;4.43;3.57;;;27.10;99.90;;;;;;5101651;28;20824;-51
2022/05/10 10:34:47;;;;;;;5.67;3.77;;;27.50;99.90;;;;;;5100962;28;20421;-51
2022/05/10 10:37:12;;;;;;;8.80;4.30;;;27.80;99.90;;;;;;5099673;28;20415;-51
2022/05/10 10:39:51;;;;;;;5.80;3.40;;;28.70;99.90;;;;;;5105309;28;20422;-51
2022/05/10 10:42:50;;;;;;;5.73;3.80;;;29.40;99.90;;;;;;5100482;28;20216;-51
2022/05/10 10:45:17;;;;;;;8.13;3.70;;;29.80;99.90;;;;;;5100911;28;20517;-51
2022/05/10 10:48:05;;;;;;;5.83;3.10;;;29.50;99.90;;;;;;5105820;28;20443;-51
2022/05/10 10:50:35;;;;;;;14.87;3.67;;;28.90;99.90;;;;;;5107048;28;20461;-51
2022/05/10 10:53:04;;;;;;;11.80;4.30;;;28.70;99.90;;;;;;5101634;28;20410;-51
2022/05/10 10:55:51;;;;;;;9.23;3.10;;;28.40;99.90;;;;;;5098972;28;20423;-51
2022/05/10 10:58:37;;;;;;;4.70;3.03;;;28.10;99.90;;;;;;5106434;27;20982;-50
2022/05/10 11:01:33;;;;;;;5.87;3.93;;;27.90;99.90;;;;;;5104870;28;20442;-51
2022/05/10 11:04:46;;;;;;;15.90;4.20;;;27.40;99.90;;;;;;5109304;28;20410;-50
2022/05/10 11:07:32;;;;;;;6.70;3.40;;;27.70;99.90;;;;;;5087487;28;20437;-51
2022/05/10 11:10:12;;;;;;;11.80;3.63;;;27.90;99.90;;;;;;5106775;28;20442;-50
2022/05/10 11:12:40;;;;;;;5.73;3.20;;;27.50;99.90;;;;;;5105318;28;20435;-50
2022/05/10 11:15:18;;;;;;;6.90;3.47;;;27.20;99.90;;;;;;5106048;28;20469;-51
2022/05/10 11:18:03;;;;;;;8.80;3.50;;;27.20;99.90;;;;;;5099995;28;20546;-51
2022/05/10 11:20:52;;;;;;;14.40;4.20;;;26.90;99.90;;;;;;5103737;28;20557;-51
2022/05/10 11:23:34;;;;;;;6.30;3.00;;;27.00;99.90;;;;;;5101762;28;20430;-50
2022/05/10 11:26:21;;;;;;;6.53;2.90;;;27.50;99.90;;;;;;5105615;28;20518;-51
2022/05/10 11:28:58;;;;;;;4.80;3.37;;;27.70;99.90;;;;;;5099218;28;20510;-51
2022/05/10 11:31:47;;;;;;;6.97;3.33;;;27.80;99.90;;;;;;5108372;28;20461;-51
2022/05/10 11:34:32;;;;;;;11.07;3.23;;;27.70;99.90;;;;;;5104120;28;20963;-51
2022/05/10 11:37:01;;;;;;;8.63;3.50;;;27.80;99.90;;;;;;5103160;28;20426;-51
2022/05/10 11:39:42;;;;;;;9.30;3.53;;;28.10;99.90;;;;;;5100572;28;20428;-51
2022/05/10 11:42:26;;;;;;;5.10;3.20;;;28.50;99.90;;;;;;5104254;28;20402;-51
2022/05/10 11:45:01;;;;;;;5.80;3.40;;;28.30;99.90;;;;;;5101454;27;20783;-51
2022/05/10 11:47:44;;;;;;;9.43;3.30;;;28.00;99.90;;;;;;5099744;28;20422;-51
2022/05/10 11:50:40;;;;;;;5.70;3.13;;;27.70;99.90;;;;;;5105975;28;20433;-51
2022/05/10 11:53:28;;;;;;;4.53;3.70;;;27.50;99.90;;;;;;5101647;28;20483;-51
2022/05/10 11:55:56;;;;;;;5.67;3.90;;;27.20;99.90;;;;;;5110611;27;21271;-51
2022/05/10 11:58:24;;;;;;;8.70;3.70;;;27.00;99.90;;;;;;5101431;28;20476;-51
2022/05/10 12:00:56;;;;;;;8.90;3.53;;;26.80;99.90;;;;;;5104367;28;20437;-50
2022/05/10 12:03:36;;;;;;;5.87;3.90;;;26.80;99.90;;;;;;5104306;28;20545;-50
2022/05/10 12:06:24;;;;;;;10.00;3.87;;;26.70;99.90;;;;;;5106201;28;20423;-51
2022/05/10 12:08:54;;;;;;;13.20;3.83;;;26.60;99.90;;;;;;5097333;28;20430;-51
2022/05/10 12:11:28;;;;;;;6.43;3.97;;;26.30;99.90;;;;;;5103301;28;20561;-51
2022/05/10 12:22:52;;;;;;;9.27;3.80;;;27.00;99.90;;;;;;5103171;27;20429;-50
2022/05/10 12:25:55;;;;;;;9.17;4.67;;;27.30;99.90;;;;;;5103494;28;20418;-51
2022/05/10 12:28:40;;;;;;;10.10;4.90;;;27.00;99.90;;;;;;5101386;28;20880;-51
2022/05/10 12:31:30;;;;;;;7.63;4.80;;;26.50;99.90;;;;;;5097947;27;20536;-51
2022/05/10 12:34:37;;;;;;;6.30;4.23;;;26.00;99.90;;;;;;5095979;28;20430;-53
2022/05/10 12:37:22;;;;;;;9.93;5.13;;;25.70;99.90;;;;;;5083739;28;20458;-53
2022/05/10 12:39:56;;;;;;;6.83;4.90;;;25.60;99.90;;;;;;5102727;27;20477;-53
2022/05/10 12:42:58;;;;;;;12.23;4.60;;;25.50;99.90;;;;;;5097799;28;20400;-52
2022/05/10 12:46:01;;;;;;;6.23;4.63;;;25.40;99.90;;;;;;5083222;28;20873;-53
2022/05/10 12:48:48;;;;;;;9.00;4.50;;;25.40;99.90;;;;;;5094871;28;20498;-51
2022/05/10 12:51:19;;;;;;;9.87;5.47;;;25.30;99.90;;;;;;5105783;28;20458;-51
2022/05/10 12:53:51;;;;;;;6.30;5.00;;;25.00;99.90;;;;;;5099603;28;21048;-51
2022/05/10 12:56:27;;;;;;;13.57;5.57;;;24.90;99.90;;;;;;5103107;27;20437;-51
2022/05/10 12:58:55;;;;;;;6.20;5.40;;;24.80;99.90;;;;;;5098587;28;20490;-51
2022/05/10 13:01:25;;;;;;;7.27;6.00;;;24.80;99.90;;;;;;5102860;28;20446;-51
2022/05/10 13:04:00;;;;;;;14.37;5.70;;;24.80;99.90;;;;;;5104252;28;20446;-51
2022/05/10 13:06:59;;;;;;;11.83;6.27;;;24.90;99.90;;;;;;5094577;28;20488;-51
2022/05/10 13:09:25;;;;;;;11.73;5.60;;;24.80;99.90;;;;;;5102780;28;20415;-50
2022/05/10 13:11:56;;;;;;;8.73;5.63;;;24.70;99.90;;;;;;5096300;28;21296;-50
2022/05/10 13:14:22;;;;;;;7.03;6.27;;;24.70;99.90;;;;;;5098135;28;20185;-51
2022/05/10 13:16:51;;;;;;;11.63;6.20;;;24.80;99.90;;;;;;5099109;28;20419;-50
2022/05/10 13:19:19;;;;;;;9.40;6.20;;;24.90;99.90;;;;;;5102782;28;20225;-50
2022/05/10 13:21:44;;;;;;;6.80;5.60;;;24.90;99.90;;;;;;5100311;28;20418;-50